Time;durP1;ratioP1;P1;durP2;ratioP2;P2;SDS_P1;SDS_P2;PMS_P1;PMS_P2;Temp;Humidity;BMP_temperature;BMP_pressure;BME280_temperature;BME280_humidity;BME280_pressure;Samples;Min_cycle;Max_cycle;Signal;HPM_P1;HPM_P2
2023/08/18 00:02:24;;;;;;;19.20;18.00;;;21.60;99.90;;;;;;5050339;28;20440;-80
2023/08/18 00:04:51;;;;;;;18.70;17.70;;;21.50;99.90;;;;;;5049758;28;20468;-80
2023/08/18 00:07:18;;;;;;;19.53;18.57;;;21.50;99.90;;;;;;5050985;28;20907;-79
2023/08/18 00:09:46;;;;;;;19.57;18.57;;;21.50;99.90;;;;;;5054209;28;20456;-81
2023/08/18 00:12:12;;;;;;;18.10;17.20;;;21.50;99.90;;;;;;5054255;28;20448;-80
2023/08/18 00:14:39;;;;;;;19.33;17.83;;;21.40;99.90;;;;;;5054048;28;20450;-80
2023/08/18 00:17:06;;;;;;;18.83;17.73;;;21.40;99.90;;;;;;5054098;28;20436;-80
2023/08/18 00:19:33;;;;;;;19.20;18.20;;;21.40;99.90;;;;;;5054123;28;20474;-79
2023/08/18 00:21:59;;;;;;;18.60;17.67;;;21.30;99.90;;;;;;5054095;28;20448;-80
2023/08/18 00:24:26;;;;;;;19.63;18.53;;;21.30;99.90;;;;;;5053703;28;20455;-81
2023/08/18 00:26:54;;;;;;;18.43;17.33;;;21.30;99.90;;;;;;5051970;28;20511;-82
2023/08/18 00:29:21;;;;;;;18.53;17.63;;;21.20;99.90;;;;;;5053254;28;20455;-80
2023/08/18 00:31:47;;;;;;;20.30;18.83;;;21.20;99.90;;;;;;5053032;28;20455;-80
2023/08/18 00:34:14;;;;;;;21.43;19.93;;;21.20;99.90;;;;;;5053691;28;20455;-80
2023/08/18 00:36:40;;;;;;;21.27;19.90;;;21.20;99.90;;;;;;5053644;28;20930;-80
2023/08/18 00:39:07;;;;;;;19.83;18.83;;;21.20;99.90;;;;;;5052808;28;21115;-81
2023/08/18 00:41:34;;;;;;;22.00;20.50;;;21.10;99.90;;;;;;5053492;28;20479;-80
2023/08/18 00:44:02;;;;;;;20.30;19.20;;;21.00;99.90;;;;;;5052794;28;20456;-80
2023/08/18 00:46:30;;;;;;;21.60;20.53;;;21.00;99.90;;;;;;5053402;28;20459;-80
2023/08/18 00:49:01;;;;;;;21.70;20.03;;;21.00;99.90;;;;;;5053353;28;20444;-80
2023/08/18 00:51:28;;;;;;;20.90;19.80;;;20.90;99.90;;;;;;5053303;28;20444;-80
2023/08/18 00:53:55;;;;;;;21.47;20.37;;;20.90;99.90;;;;;;5052794;28;20456;-80
2023/08/18 00:56:23;;;;;;;20.27;19.17;;;20.70;99.90;;;;;;5052599;28;20460;-78
2023/08/18 00:58:50;;;;;;;20.67;19.50;;;20.70;99.90;;;;;;5053246;28;20969;-77
2023/08/18 01:01:18;;;;;;;19.77;18.80;;;20.70;99.90;;;;;;5052665;28;20452;-84
2023/08/18 01:03:45;;;;;;;20.77;19.67;;;20.60;99.90;;;;;;5052328;28;20452;-83
2023/08/18 01:06:12;;;;;;;21.80;20.70;;;20.60;99.90;;;;;;5051983;28;20489;-79
2023/08/18 01:08:39;;;;;;;20.90;19.60;;;20.60;99.90;;;;;;5052178;28;20508;-78
2023/08/18 01:11:12;;;;;;;19.67;18.67;;;20.50;99.90;;;;;;5049307;28;20456;-78
2023/08/18 01:13:47;;;;;;;20.67;19.67;;;20.50;99.90;;;;;;5051684;28;20501;-78
2023/08/18 01:16:21;;;;;;;19.67;18.67;;;20.40;99.90;;;;;;5053043;28;20451;-79
2023/08/18 01:18:48;;;;;;;20.53;19.53;;;20.20;99.90;;;;;;5051528;28;20448;-78
2023/08/18 01:21:17;;;;;;;22.53;21.43;;;20.20;99.90;;;;;;5052777;28;20459;-78
2023/08/18 01:23:45;;;;;;;20.13;19.03;;;20.20;99.90;;;;;;5051666;28;20452;-78
2023/08/18 01:26:12;;;;;;;20.80;19.07;;;20.10;99.90;;;;;;5051531;28;20471;-79
2023/08/18 01:28:39;;;;;;;22.17;20.73;;;20.10;99.90;;;;;;5052713;28;20541;-81
2023/08/18 01:31:10;;;;;;;22.57;20.83;;;20.20;99.90;;;;;;5052621;28;20456;-82
2023/08/18 01:33:46;;;;;;;20.83;19.60;;;20.20;99.90;;;;;;5052556;28;20452;-80
2023/08/18 01:36:16;;;;;;;19.40;18.40;;;20.10;99.90;;;;;;5046114;28;20456;-80
2023/08/18 01:38:45;;;;;;;19.70;18.80;;;20.10;99.90;;;;;;5050467;28;20480;-79
2023/08/18 01:41:13;;;;;;;19.83;18.83;;;20.00;99.90;;;;;;5051358;28;20460;-78
2023/08/18 01:43:40;;;;;;;20.77;19.67;;;20.00;99.90;;;;;;5051590;28;20456;-82
2023/08/18 01:46:07;;;;;;;19.77;18.77;;;20.00;99.90;;;;;;5052122;28;20825;-82
2023/08/18 01:48:34;;;;;;;20.97;19.67;;;20.00;99.90;;;;;;5052442;28;20567;-81
2023/08/18 01:51:00;;;;;;;20.60;19.50;;;20.00;99.90;;;;;;5052609;28;20721;-80
2023/08/18 01:53:27;;;;;;;21.90;20.70;;;19.90;99.90;;;;;;5051893;28;20860;-81
2023/08/18 01:55:55;;;;;;;22.17;21.07;;;19.90;99.90;;;;;;5052201;28;20856;-80
2023/08/18 01:58:22;;;;;;;22.67;21.40;;;19.90;99.90;;;;;;5052271;28;20467;-80
2023/08/18 02:00:52;;;;;;;20.80;19.83;;;19.90;99.90;;;;;;5051684;28;20559;-80
2023/08/18 02:03:19;;;;;;;21.23;20.13;;;19.80;99.90;;;;;;5050879;28;20451;-81
2023/08/18 02:05:46;;;;;;;22.10;20.90;;;19.80;99.90;;;;;;5050144;28;20813;-81
2023/08/18 02:08:13;;;;;;;20.10;18.80;;;19.80;99.90;;;;;;5051417;28;20495;-81
2023/08/18 02:10:39;;;;;;;19.90;18.80;;;19.90;99.90;;;;;;5051061;28;20464;-81
2023/08/18 02:13:09;;;;;;;19.93;19.00;;;19.90;99.90;;;;;;5051358;28;20551;-79
2023/08/18 02:15:36;;;;;;;21.10;19.90;;;19.80;99.90;;;;;;5051351;28;20934;-78
2023/08/18 02:18:04;;;;;;;21.60;19.93;;;19.70;99.90;;;;;;5049779;28;20448;-79
2023/08/18 02:20:30;;;;;;;23.43;21.93;;;19.70;99.90;;;;;;5051054;28;20774;-78
2023/08/18 02:22:57;;;;;;;22.50;21.33;;;19.70;99.90;;;;;;5050902;28;20455;-82
2023/08/18 02:25:24;;;;;;;20.97;19.77;;;19.60;99.90;;;;;;5051900;28;20472;-82
2023/08/18 02:27:50;;;;;;;21.20;20.20;;;19.60;99.90;;;;;;5051469;28;20796;-82
2023/08/18 02:30:18;;;;;;;22.00;20.60;;;19.60;99.90;;;;;;5050596;28;20826;-83
2023/08/18 02:32:45;;;;;;;21.33;20.03;;;19.50;99.90;;;;;;5051749;28;21013;-82
2023/08/18 02:35:12;;;;;;;21.07;19.87;;;19.50;99.90;;;;;;5051112;28;20563;-80
2023/08/18 02:37:39;;;;;;;21.30;20.20;;;19.50;99.90;;;;;;5050729;28;20443;-80
2023/08/18 02:40:08;;;;;;;21.43;20.07;;;19.50;99.90;;;;;;5051425;28;20771;-81
2023/08/18 02:42:35;;;;;;;20.60;19.20;;;19.50;99.90;;;;;;5051463;28;20456;-80
2023/08/18 02:45:02;;;;;;;21.37;20.00;;;19.60;99.90;;;;;;5051017;28;20440;-79
2023/08/18 02:47:30;;;;;;;20.83;19.70;;;19.60;99.90;;;;;;5050634;28;20506;-80
2023/08/18 02:49:57;;;;;;;20.83;18.97;;;19.70;99.90;;;;;;5050309;28;20787;-79
2023/08/18 02:52:24;;;;;;;21.00;20.00;;;19.70;99.90;;;;;;5050773;28;20440;-80
2023/08/18 02:54:50;;;;;;;21.33;20.13;;;19.70;99.90;;;;;;5051296;28;20448;-79
2023/08/18 02:57:17;;;;;;;20.27;19.17;;;19.60;99.90;;;;;;5051612;28;20440;-79
2023/08/18 02:59:44;;;;;;;20.27;19.13;;;19.60;99.90;;;;;;5051890;28;20452;-80
2023/08/18 03:02:10;;;;;;;19.57;18.60;;;19.50;99.90;;;;;;5051002;28;20448;-80
2023/08/18 03:04:38;;;;;;;20.93;19.70;;;19.50;99.90;;;;;;5050076;28;20440;-81
2023/08/18 03:07:05;;;;;;;21.13;20.03;;;19.50;99.90;;;;;;5050165;28;20459;-80
2023/08/18 03:09:32;;;;;;;21.20;20.10;;;19.50;99.90;;;;;;5050093;28;20451;-83
2023/08/18 03:11:58;;;;;;;22.13;20.93;;;19.50;99.90;;;;;;5049979;28;20451;-82
2023/08/18 03:14:25;;;;;;;20.10;18.57;;;19.50;99.90;;;;;;5049200;28;20455;-82
2023/08/18 03:16:52;;;;;;;19.70;18.60;;;19.50;99.90;;;;;;5050746;28;20459;-80
2023/08/18 03:19:19;;;;;;;21.00;19.70;;;19.50;99.90;;;;;;5050830;28;20472;-81
2023/08/18 03:21:47;;;;;;;20.30;19.33;;;19.50;99.90;;;;;;5050739;28;20460;-81
2023/08/18 03:24:13;;;;;;;20.20;19.30;;;19.50;99.90;;;;;;5049083;28;20453;-80
2023/08/18 03:26:40;;;;;;;21.03;19.97;;;19.40;99.90;;;;;;5049968;28;20503;-79
2023/08/18 03:29:07;;;;;;;23.40;21.97;;;19.40;99.90;;;;;;5047652;28;20666;-80
2023/08/18 03:31:34;;;;;;;20.77;19.67;;;19.40;99.90;;;;;;5049080;28;20479;-79
2023/08/18 03:34:00;;;;;;;20.07;18.97;;;19.30;99.90;;;;;;5049624;28;20531;-79
2023/08/18 03:36:27;;;;;;;20.30;19.20;;;19.30;99.90;;;;;;5049287;28;20456;-79
2023/08/18 03:38:55;;;;;;;21.23;20.00;;;19.30;99.90;;;;;;5048858;28;20492;-79
2023/08/18 03:41:22;;;;;;;19.63;18.33;;;19.20;99.90;;;;;;5049108;28;20452;-81
2023/08/18 03:43:49;;;;;;;19.63;18.50;;;19.20;99.90;;;;;;5051785;28;20451;-79
2023/08/18 03:46:25;;;;;;;20.10;18.90;;;19.30;99.90;;;;;;5049067;28;20452;-79
2023/08/18 03:48:52;;;;;;;19.17;18.17;;;19.20;99.90;;;;;;5035248;28;20479;-77
2023/08/18 03:51:18;;;;;;;21.60;20.50;;;19.20;99.90;;;;;;5051541;28;20959;-80
2023/08/18 03:53:45;;;;;;;19.10;18.10;;;19.10;99.90;;;;;;5052545;28;20455;-82
2023/08/18 03:56:13;;;;;;;20.80;19.60;;;19.20;99.90;;;;;;5052032;28;20448;-81
2023/08/18 03:58:41;;;;;;;19.90;18.47;;;19.20;99.90;;;;;;5052784;28;20553;-80
2023/08/18 04:01:09;;;;;;;20.63;19.70;;;19.20;99.90;;;;;;5052627;28;20857;-85
2023/08/18 04:03:37;;;;;;;22.03;20.50;;;19.10;99.90;;;;;;5052664;28;20847;-84
2023/08/18 04:06:04;;;;;;;19.00;18.10;;;19.10;99.90;;;;;;5047456;28;20456;-83
2023/08/18 04:08:33;;;;;;;20.77;19.40;;;19.20;99.90;;;;;;5042194;28;20685;-84
2023/08/18 04:11:00;;;;;;;21.40;20.10;;;19.20;99.90;;;;;;5040192;28;20459;-83
2023/08/18 04:13:28;;;;;;;23.83;21.67;;;19.20;99.90;;;;;;5039637;28;20484;-83
2023/08/18 04:15:54;;;;;;;20.83;19.73;;;19.30;99.90;;;;;;5039598;28;20822;-82
2023/08/18 04:18:21;;;;;;;21.57;20.17;;;19.30;99.90;;;;;;5041198;28;20448;-81
2023/08/18 04:20:48;;;;;;;21.83;20.50;;;19.30;99.90;;;;;;5029860;28;20445;-81
2023/08/18 04:23:14;;;;;;;21.03;19.77;;;19.20;99.90;;;;;;5034455;28;20946;-82
2023/08/18 04:25:43;;;;;;;22.57;20.97;;;19.20;99.90;;;;;;5039328;28;20472;-82
2023/08/18 04:28:09;;;;;;;19.93;18.83;;;19.20;99.90;;;;;;5034188;28;20891;-81
2023/08/18 04:30:38;;;;;;;22.57;21.27;;;19.20;99.90;;;;;;5036812;28;20448;-82
2023/08/18 04:33:06;;;;;;;20.97;19.77;;;19.20;99.90;;;;;;5044429;28;20460;-81
2023/08/18 04:35:33;;;;;;;20.43;19.33;;;19.20;99.90;;;;;;5038780;28;20451;-83
2023/08/18 04:37:59;;;;;;;20.13;19.10;;;19.20;99.90;;;;;;5045159;28;20475;-81
2023/08/18 04:40:26;;;;;;;21.57;20.37;;;19.20;99.90;;;;;;5044901;28;20800;-82
2023/08/18 04:42:53;;;;;;;22.23;21.00;;;19.20;99.90;;;;;;5051521;28;20452;-81
2023/08/18 04:45:19;;;;;;;21.83;20.40;;;19.20;99.90;;;;;;5049136;28;20453;-80
2023/08/18 04:47:48;;;;;;;22.10;20.80;;;19.20;99.90;;;;;;5051067;28;20847;-81
2023/08/18 04:50:15;;;;;;;20.47;19.37;;;19.30;99.90;;;;;;5049927;28;20479;-82
2023/08/18 04:52:41;;;;;;;22.60;21.40;;;19.30;99.90;;;;;;5051295;28;20827;-83
2023/08/18 04:55:08;;;;;;;21.50;20.30;;;19.30;99.90;;;;;;5049927;28;20460;-82
2023/08/18 04:57:35;;;;;;;24.10;22.10;;;19.30;99.90;;;;;;5049967;28;20961;-82
2023/08/18 05:00:02;;;;;;;21.93;20.63;;;19.30;99.90;;;;;;5045984;28;20456;-79
2023/08/18 05:02:29;;;;;;;21.97;20.63;;;19.40;99.90;;;;;;5050578;28;20495;-81
2023/08/18 05:04:57;;;;;;;24.33;22.23;;;19.40;99.90;;;;;;5047791;28;20456;-84
2023/08/18 05:07:23;;;;;;;22.07;20.87;;;19.50;99.90;;;;;;5041507;28;20456;-87
2023/08/18 05:09:50;;;;;;;22.30;20.70;;;19.50;99.90;;;;;;5058524;28;20670;-87
2023/08/18 05:12:17;;;;;;;22.17;20.80;;;19.70;99.90;;;;;;5049385;28;20910;-86
2023/08/18 05:14:44;;;;;;;22.57;21.17;;;19.80;99.90;;;;;;5038844;28;20450;-86
2023/08/18 05:17:11;;;;;;;22.10;20.40;;;20.10;99.90;;;;;;5042324;28;20449;-85
2023/08/18 05:19:38;;;;;;;20.27;19.17;;;20.50;99.90;;;;;;5046540;28;20450;-86
2023/08/18 05:22:06;;;;;;;19.50;18.40;;;20.80;99.90;;;;;;5046555;28;20531;-87
2023/08/18 05:24:33;;;;;;;20.50;19.07;;;21.30;99.90;;;;;;5054999;28;20499;-85
2023/08/18 05:26:59;;;;;;;19.00;17.90;;;21.70;99.90;;;;;;5040455;28;20448;-86
2023/08/18 05:29:26;;;;;;;19.50;18.20;;;22.10;99.90;;;;;;5045962;28;20492;-84
2023/08/18 05:31:53;;;;;;;17.93;16.87;;;22.40;99.90;;;;;;5048485;28;20456;-86
2023/08/18 05:34:20;;;;;;;18.40;17.23;;;22.70;99.90;;;;;;5049558;28;20914;-86
2023/08/18 05:36:48;;;;;;;18.40;17.33;;;22.90;99.90;;;;;;5043836;28;20448;-85
2023/08/18 05:39:16;;;;;;;20.10;18.20;;;23.00;99.90;;;;;;5040553;28;21047;-84
2023/08/18 05:41:44;;;;;;;18.40;17.10;;;23.10;99.90;;;;;;5047424;28;20479;-84
2023/08/18 05:44:12;;;;;;;17.43;16.30;;;23.40;99.90;;;;;;5045840;28;20454;-82
2023/08/18 05:46:39;;;;;;;17.10;16.10;;;23.60;99.90;;;;;;5043282;28;20459;-83
2023/08/18 05:49:06;;;;;;;17.23;16.43;;;23.60;99.90;;;;;;5052228;28;20510;-86
2023/08/18 05:51:32;;;;;;;17.93;16.90;;;23.50;99.90;;;;;;5045040;28;20453;-84
2023/08/18 05:53:59;;;;;;;16.93;16.20;;;23.50;99.90;;;;;;5042162;28;20801;-82
2023/08/18 05:56:27;;;;;;;17.40;16.40;;;23.70;99.90;;;;;;5049640;28;20456;-82
2023/08/18 05:58:54;;;;;;;17.10;16.07;;;23.80;99.90;;;;;;5050477;28;20451;-84
2023/08/18 06:01:20;;;;;;;17.00;16.20;;;24.00;99.90;;;;;;5049559;28;20448;-82
2023/08/18 06:03:47;;;;;;;16.93;15.97;;;24.10;99.90;;;;;;5050414;28;20981;-82
2023/08/18 06:06:14;;;;;;;18.77;16.97;;;24.40;99.90;;;;;;5049438;28;20480;-83
2023/08/18 06:08:41;;;;;;;16.90;15.90;;;24.70;99.90;;;;;;5049854;28;20475;-83
2023/08/18 06:11:08;;;;;;;16.70;15.63;;;25.20;99.90;;;;;;5051422;28;20471;-81
2023/08/18 06:13:36;;;;;;;17.93;17.00;;;25.60;99.90;;;;;;5050297;28;20459;-84
2023/08/18 06:16:04;;;;;;;17.03;16.23;;;25.70;99.90;;;;;;5040732;28;20890;-89
2023/08/18 06:18:30;;;;;;;15.70;14.90;;;25.90;99.90;;;;;;5049472;28;20465;-83
2023/08/18 06:20:57;;;;;;;15.70;14.90;;;26.00;99.90;;;;;;5051481;28;20448;-83
2023/08/18 06:23:24;;;;;;;16.10;15.47;;;26.40;99.90;;;;;;5050555;28;20489;-84
2023/08/18 06:25:50;;;;;;;17.20;16.00;;;26.60;99.90;;;;;;5051893;28;20512;-87
2023/08/18 06:28:17;;;;;;;15.97;15.27;;;26.90;99.90;;;;;;5051075;28;20464;-85
2023/08/18 06:30:45;;;;;;;21.40;17.50;;;27.30;99.90;;;;;;5051415;28;20444;-85
2023/08/18 06:33:12;;;;;;;19.93;18.10;;;27.40;99.90;;;;;;5052297;28;20470;-84
2023/08/18 06:35:39;;;;;;;19.10;17.73;;;27.00;99.90;;;;;;5047124;28;20452;-78
2023/08/18 06:38:05;;;;;;;16.83;16.03;;;26.90;99.90;;;;;;5048837;28;20480;-77
2023/08/18 06:40:32;;;;;;;17.73;16.60;;;26.80;99.90;;;;;;5048605;28;20455;-76
2023/08/18 06:42:59;;;;;;;16.50;15.50;;;26.80;99.90;;;;;;5046584;28;20483;-77
2023/08/18 06:45:26;;;;;;;17.00;15.60;;;26.70;99.90;;;;;;5048663;28;20455;-79
2023/08/18 06:47:54;;;;;;;16.57;15.63;;;26.90;99.90;;;;;;5049652;28;20806;-76
2023/08/18 06:50:21;;;;;;;16.33;15.60;;;27.10;99.90;;;;;;5048739;28;20798;-76
2023/08/18 06:52:48;;;;;;;16.00;15.30;;;27.20;99.90;;;;;;5049231;28;20452;-76
2023/08/18 06:55:15;;;;;;;15.60;15.00;;;27.50;99.50;;;;;;5049657;28;20463;-76
2023/08/18 06:57:40;;;;;;;14.83;14.20;;;28.00;97.70;;;;;;5049910;28;20444;-75
2023/08/18 07:00:09;;;;;;;15.23;14.43;;;28.20;97.40;;;;;;5049833;28;20440;-76
2023/08/18 07:02:36;;;;;;;16.47;15.57;;;28.30;96.60;;;;;;5048456;28;20391;-75
2023/08/18 07:05:05;;;;;;;16.70;15.83;;;28.50;96.70;;;;;;5044518;28;20449;-75
2023/08/18 07:07:33;;;;;;;17.00;15.97;;;28.90;95.90;;;;;;5048787;28;20470;-76
2023/08/18 07:10:00;;;;;;;14.67;14.07;;;29.50;94.30;;;;;;5049803;28;21025;-76
2023/08/18 07:12:27;;;;;;;15.67;14.87;;;29.60;93.70;;;;;;5047798;28;20452;-76
2023/08/18 07:14:53;;;;;;;15.60;14.80;;;29.40;93.70;;;;;;5043970;28;20822;-77
2023/08/18 07:17:20;;;;;;;16.70;15.90;;;29.70;93.50;;;;;;5048323;28;20468;-77
2023/08/18 07:19:47;;;;;;;15.83;15.13;;;30.10;92.90;;;;;;5040939;28;20842;-76
2023/08/18 07:22:15;;;;;;;16.20;15.40;;;30.90;91.60;;;;;;5048311;28;20460;-76
2023/08/18 07:24:41;;;;;;;15.70;15.10;;;30.80;90.60;;;;;;5046855;28;20484;-77
2023/08/18 07:27:08;;;;;;;16.00;15.07;;;30.60;90.10;;;;;;5047359;28;20463;-76
2023/08/18 07:29:35;;;;;;;15.57;14.80;;;30.10;90.80;;;;;;5047653;28;20954;-76
2023/08/18 07:32:02;;;;;;;15.20;14.47;;;29.80;91.10;;;;;;5048088;28;20464;-76
2023/08/18 07:34:29;;;;;;;15.40;14.60;;;29.70;91.70;;;;;;5047777;28;20444;-76
2023/08/18 07:36:56;;;;;;;16.00;15.30;;;29.70;91.60;;;;;;5046738;28;20455;-76
2023/08/18 07:39:24;;;;;;;16.03;15.33;;;29.70;91.80;;;;;;5047586;28;20487;-77
2023/08/18 07:41:51;;;;;;;17.23;15.67;;;30.10;91.00;;;;;;5046743;28;20483;-76
2023/08/18 07:44:18;;;;;;;14.97;14.17;;;29.80;91.70;;;;;;5046116;28;20818;-77
2023/08/18 07:46:44;;;;;;;16.87;15.87;;;30.10;91.70;;;;;;5047019;28;20515;-76
2023/08/18 07:49:11;;;;;;;16.70;15.70;;;30.90;91.10;;;;;;5047936;28;20491;-76
2023/08/18 07:51:39;;;;;;;16.27;15.47;;;31.30;89.50;;;;;;5047187;28;20459;-75
2023/08/18 07:54:06;;;;;;;16.40;15.60;;;31.20;88.60;;;;;;5048084;28;20855;-75
2023/08/18 07:56:34;;;;;;;15.80;15.00;;;31.30;89.90;;;;;;5045458;28;20497;-76
2023/08/18 07:59:01;;;;;;;16.00;15.20;;;31.30;88.80;;;;;;5048336;28;20459;-80
2023/08/18 08:01:28;;;;;;;15.60;14.83;;;31.50;87.90;;;;;;5048417;28;20542;-77
2023/08/18 08:03:55;;;;;;;15.53;14.93;;;31.80;86.30;;;;;;5047369;28;20676;-77
2023/08/18 08:06:22;;;;;;;15.07;14.37;;;32.30;83.70;;;;;;5046986;28;21011;-77
2023/08/18 08:08:49;;;;;;;16.33;15.30;;;32.50;83.10;;;;;;5044501;28;20445;-76
2023/08/18 08:11:15;;;;;;;16.60;15.60;;;32.40;82.00;;;;;;5048343;28;20552;-77
2023/08/18 08:13:45;;;;;;;16.97;16.00;;;32.30;83.30;;;;;;5047842;28;20472;-78
2023/08/18 08:16:11;;;;;;;17.40;16.40;;;32.70;80.40;;;;;;5048255;28;20509;-77
2023/08/18 08:18:38;;;;;;;17.73;16.77;;;32.80;80.10;;;;;;5046642;28;20449;-78
2023/08/18 08:21:05;;;;;;;15.77;15.00;;;33.30;79.40;;;;;;5048418;28;20455;-78
2023/08/18 08:23:31;;;;;;;17.10;16.40;;;34.00;77.00;;;;;;5047175;28;20452;-77
2023/08/18 08:26:01;;;;;;;17.63;16.73;;;33.60;76.80;;;;;;5048537;28;20487;-78
2023/08/18 08:28:28;;;;;;;17.17;16.37;;;33.70;78.40;;;;;;5049203;28;20474;-77
2023/08/18 08:30:56;;;;;;;17.97;17.17;;;34.40;75.70;;;;;;5052011;28;20484;-77
2023/08/18 08:33:23;;;;;;;16.10;15.40;;;34.90;72.50;;;;;;5049930;28;20440;-76
2023/08/18 08:35:50;;;;;;;17.00;16.20;;;34.90;71.30;;;;;;5051407;28;20455;-78
2023/08/18 08:38:17;;;;;;;16.97;16.17;;;34.70;71.30;;;;;;5051957;28;20945;-75
2023/08/18 08:40:44;;;;;;;16.80;15.93;;;34.80;71.30;;;;;;5047379;28;20463;-76
2023/08/18 08:43:11;;;;;;;17.40;16.60;;;35.10;70.40;;;;;;5042692;28;20934;-76
2023/08/18 08:45:39;;;;;;;16.80;16.00;;;35.60;68.50;;;;;;5051367;28;20595;-77
2023/08/18 08:48:09;;;;;;;16.30;15.60;;;35.20;67.50;;;;;;5050991;28;20455;-76
2023/08/18 08:50:41;;;;;;;16.43;15.70;;;34.60;67.40;;;;;;5050515;28;20483;-76
2023/08/18 08:53:10;;;;;;;15.47;14.77;;;34.10;68.50;;;;;;5048954;28;20736;-76
2023/08/18 08:55:38;;;;;;;16.53;15.53;;;34.60;68.20;;;;;;5047231;28;20491;-76
2023/08/18 08:58:05;;;;;;;16.30;15.40;;;34.30;67.60;;;;;;5051515;28;20479;-76
2023/08/18 09:00:32;;;;;;;15.97;15.20;;;34.00;66.60;;;;;;5049978;28;20452;-76
2023/08/18 09:03:03;;;;;;;15.97;15.07;;;34.30;67.90;;;;;;5046732;28;20453;-77
2023/08/18 09:05:33;;;;;;;16.93;16.13;;;34.20;67.40;;;;;;5045038;28;20953;-77
2023/08/18 09:08:00;;;;;;;15.93;15.23;;;34.50;66.50;;;;;;5048689;28;20813;-76
2023/08/18 09:10:27;;;;;;;16.87;15.97;;;34.30;65.20;;;;;;5050674;28;20486;-76
2023/08/18 09:12:55;;;;;;;16.73;16.03;;;34.70;66.60;;;;;;5050561;28;20456;-77
2023/08/18 09:15:23;;;;;;;16.43;15.83;;;35.00;63.90;;;;;;5050577;28;20827;-77
2023/08/18 09:17:50;;;;;;;16.10;15.30;;;35.20;63.70;;;;;;5048930;28;20942;-76
2023/08/18 09:20:18;;;;;;;16.93;16.17;;;35.20;63.50;;;;;;5049840;28;20444;-76
2023/08/18 09:22:46;;;;;;;17.10;16.50;;;35.10;63.80;;;;;;5047363;28;20457;-76
2023/08/18 09:25:13;;;;;;;17.50;16.80;;;35.10;64.20;;;;;;5044989;28;20499;-76
2023/08/18 09:27:40;;;;;;;17.43;16.53;;;35.00;64.30;;;;;;5051069;28;20471;-77
2023/08/18 09:30:08;;;;;;;16.60;15.90;;;35.60;64.00;;;;;;5047160;28;20493;-77
2023/08/18 09:32:36;;;;;;;16.57;15.67;;;36.10;62.10;;;;;;5048616;28;20802;-77
2023/08/18 09:35:03;;;;;;;16.93;16.20;;;36.10;61.20;;;;;;5050540;28;20527;-77
2023/08/18 09:37:31;;;;;;;15.97;15.37;;;36.10;62.00;;;;;;5039847;28;20452;-77
2023/08/18 09:39:59;;;;;;;18.60;17.63;;;36.90;60.10;;;;;;5048696;28;20520;-77
2023/08/18 09:42:26;;;;;;;17.03;16.30;;;37.90;58.10;;;;;;5049565;28;20463;-77
2023/08/18 09:44:53;;;;;;;18.37;17.13;;;38.90;56.00;;;;;;5045270;28;20451;-77
2023/08/18 09:47:22;;;;;;;17.70;17.00;;;39.40;53.30;;;;;;5047495;28;20460;-78
2023/08/18 09:49:51;;;;;;;17.20;16.43;;;38.60;54.40;;;;;;5048663;28;20488;-78
2023/08/18 09:52:19;;;;;;;16.30;15.70;;;38.60;54.70;;;;;;5047749;28;20453;-77
2023/08/18 09:54:55;;;;;;;17.93;17.07;;;38.80;54.10;;;;;;5050934;28;20518;-77
2023/08/18 09:57:31;;;;;;;18.00;17.30;;;39.10;53.40;;;;;;5041645;28;20455;-78
2023/08/18 09:59:59;;;;;;;18.60;17.90;;;40.20;52.50;;;;;;5049720;28;20483;-77
2023/08/18 10:02:29;;;;;;;17.63;16.93;;;40.50;50.00;;;;;;5047935;28;20447;-78
2023/08/18 10:04:56;;;;;;;18.60;17.60;;;39.90;48.90;;;;;;5047680;28;20459;-79
2023/08/18 10:07:24;;;;;;;18.40;17.40;;;38.60;51.30;;;;;;5050468;28;20842;-79
2023/08/18 10:09:52;;;;;;;18.70;17.50;;;37.50;53.10;;;;;;5048310;28;20495;-79
2023/08/18 10:12:19;;;;;;;17.30;16.70;;;38.50;52.70;;;;;;5041014;28;20474;-79
2023/08/18 10:14:49;;;;;;;18.40;17.70;;;38.50;53.40;;;;;;5050003;28;20451;-79
2023/08/18 10:17:16;;;;;;;17.93;17.23;;;38.60;52.40;;;;;;5049584;28;20444;-78
2023/08/18 10:19:48;;;;;;;19.50;18.70;;;38.20;51.40;;;;;;5050073;28;20452;-78
2023/08/18 10:22:16;;;;;;;17.43;16.60;;;38.70;51.60;;;;;;5049685;28;20456;-78
2023/08/18 10:24:45;;;;;;;18.10;17.30;;;38.20;51.10;;;;;;5047095;28;20483;-79
2023/08/18 10:27:13;;;;;;;18.53;17.83;;;38.30;51.60;;;;;;5048985;28;20452;-78
2023/08/18 10:29:43;;;;;;;18.27;17.37;;;39.40;51.20;;;;;;5049185;28;20828;-77
2023/08/18 10:32:12;;;;;;;18.70;17.90;;;39.70;49.90;;;;;;5049284;28;20495;-78
2023/08/18 10:34:39;;;;;;;20.37;19.17;;;40.80;48.90;;;;;;5049047;28;20479;-78
2023/08/18 10:37:07;;;;;;;20.33;19.40;;;41.20;47.50;;;;;;5049004;28;20885;-79
2023/08/18 10:39:37;;;;;;;19.20;18.40;;;42.10;45.70;;;;;;5049672;28;20483;-79
2023/08/18 10:42:08;;;;;;;18.13;17.13;;;42.40;45.00;;;;;;5049294;28;20232;-77
2023/08/18 10:44:35;;;;;;;18.73;17.93;;;42.30;44.20;;;;;;5037837;28;20447;-77
2023/08/18 10:47:03;;;;;;;17.57;16.63;;;42.10;44.70;;;;;;5048913;28;20561;-78
2023/08/18 10:49:32;;;;;;;18.47;17.57;;;40.90;45.90;;;;;;5048744;28;20509;-77
2023/08/18 10:52:03;;;;;;;18.00;17.10;;;40.00;46.70;;;;;;5048845;28;20451;-77
2023/08/18 10:54:29;;;;;;;17.87;17.03;;;39.00;48.50;;;;;;5046962;28;20448;-77
2023/08/18 10:56:56;;;;;;;18.37;17.60;;;39.60;48.80;;;;;;5048114;28;20934;-77
2023/08/18 10:59:23;;;;;;;19.23;17.97;;;40.80;47.20;;;;;;5048731;28;20457;-78
2023/08/18 11:01:49;;;;;;;19.40;18.60;;;41.70;46.10;;;;;;5048288;28;20787;-79
2023/08/18 11:04:16;;;;;;;18.20;17.50;;;41.80;45.00;;;;;;5046438;28;20453;-78
2023/08/18 11:06:45;;;;;;;17.33;16.63;;;41.80;43.30;;;;;;5036895;28;20456;-78
2023/08/18 11:09:12;;;;;;;18.20;17.23;;;41.70;42.60;;;;;;5047492;28;20805;-78
2023/08/18 11:11:40;;;;;;;17.57;16.97;;;42.30;42.40;;;;;;5044280;28;20487;-77
2023/08/18 11:14:07;;;;;;;18.33;17.40;;;42.10;43.30;;;;;;5044084;28;20489;-77
2023/08/18 11:16:37;;;;;;;18.73;18.03;;;42.30;42.60;;;;;;5049183;28;20525;-77
2023/08/18 11:19:05;;;;;;;19.37;18.57;;;42.40;41.50;;;;;;5047337;28;20966;-77
2023/08/18 11:21:36;;;;;;;17.70;16.90;;;42.40;40.70;;;;;;5047679;28;20456;-78
2023/08/18 11:24:08;;;;;;;18.93;18.03;;;42.80;40.70;;;;;;5048974;28;20254;-79
2023/08/18 11:26:36;;;;;;;19.23;18.43;;;43.10;40.00;;;;;;5044444;28;20235;-79
2023/08/18 11:29:04;;;;;;;19.77;18.87;;;43.20;39.50;;;;;;5048671;28;20290;-78
2023/08/18 11:31:30;;;;;;;19.83;18.90;;;44.00;39.40;;;;;;5042235;28;20469;-78
2023/08/18 11:33:58;;;;;;;18.88;18.02;;;44.60;38.90;;;;;;5047422;28;20228;-78
2023/08/18 11:36:29;;;;;;;17.77;17.00;;;44.10;36.50;;;;;;5045666;28;20257;-78
2023/08/18 11:39:01;;;;;;;17.70;17.00;;;41.50;37.10;;;;;;5047272;28;20511;-77
2023/08/18 11:41:36;;;;;;;18.57;17.77;;;40.30;40.20;;;;;;5047079;28;21079;-78
2023/08/18 11:44:04;;;;;;;18.00;17.20;;;39.90;40.30;;;;;;5044311;28;20455;-78
2023/08/18 11:46:31;;;;;;;19.40;18.37;;;40.00;40.80;;;;;;5047174;28;20447;-78
2023/08/18 11:48:59;;;;;;;19.37;18.57;;;41.20;39.10;;;;;;5048970;28;20483;-78
2023/08/18 11:51:26;;;;;;;18.67;17.87;;;42.40;38.50;;;;;;5047527;28;20896;-78
2023/08/18 11:53:53;;;;;;;16.60;15.90;;;42.10;37.10;;;;;;5046596;28;20464;-78
2023/08/18 11:56:20;;;;;;;20.20;19.27;;;41.00;38.40;;;;;;5047144;28;21028;-78
2023/08/18 11:58:49;;;;;;;18.23;17.60;;;41.00;39.70;;;;;;5048261;28;20452;-78
2023/08/18 12:01:16;;;;;;;18.27;17.47;;;41.90;38.90;;;;;;5046837;28;20483;-80
2023/08/18 12:03:42;;;;;;;19.20;18.40;;;42.60;38.60;;;;;;5047005;28;20921;-79
2023/08/18 12:06:09;;;;;;;19.33;18.57;;;43.30;38.00;;;;;;5052699;28;20205;-79
2023/08/18 12:08:36;;;;;;;18.30;17.57;;;43.10;37.30;;;;;;5051311;28;20197;-79
2023/08/18 12:11:02;;;;;;;18.10;17.30;;;40.80;39.90;;;;;;5051654;28;20534;-78
2023/08/18 12:13:31;;;;;;;19.03;18.23;;;40.90;41.40;;;;;;5051873;28;20462;-78
2023/08/18 12:15:59;;;;;;;18.67;17.87;;;41.30;40.70;;;;;;5050720;28;20460;-78
2023/08/18 12:18:26;;;;;;;18.53;17.77;;;42.10;39.20;;;;;;5051970;28;20443;-79
2023/08/18 12:20:52;;;;;;;16.83;16.13;;;42.30;38.30;;;;;;5052375;28;20495;-79
2023/08/18 12:23:19;;;;;;;18.43;17.50;;;41.30;39.40;;;;;;5051643;28;20467;-79
2023/08/18 12:25:46;;;;;;;17.63;16.70;;;41.30;39.50;;;;;;5049756;28;20475;-79
2023/08/18 12:28:12;;;;;;;18.03;17.10;;;40.10;40.00;;;;;;5052013;28;20912;-78
2023/08/18 12:30:39;;;;;;;17.20;16.40;;;39.00;41.50;;;;;;5051665;28;20448;-78